Terminal Aerodrome Forecast
Issued by NWS Louisville, KY

Home | Current Version | Previous Version | Text Only | Print | Product List | Glossary On
Versions: 1 2 3 4 5 6 7 8 9 10 11 12 13 14 15 16 17
000
FTUS43 KLMK 191900 AAA
TAFSDF
TAF AMD
KSDF 191902Z 1919/2024 VRB05KT P6SM SCT040
     FM192200 21007KT P6SM VCTS BKN040CB
     FM200400 24005KT 6SM HZ BKN090
     FM201300 26008KT P6SM SCT035=

USA.gov is the U.S. government's official web portal to all federal, state and local government web resources and services.